| time (UTC) | temp C | wind direction | speed KPH | gust KPH | rain 1hr cm | rain 24hr cm | rain mn cm | humidity % | barometer mb |
| 20260505213804 | 22 | 255 | 9.7 | 19.3 | 0.00 | 0.00 | 0.00 | 81 | 1018.6 |
| 20260505213304 | 22 | 246 | 11.3 | 19.3 | 0.00 | 0.00 | 0.00 | 81 | 1018.6 |
| 20260505211804 | 22 | 254 | 9.7 | 19.3 | 0.00 | 0.00 | 0.00 | 80 | 1018.7 |
| 20260505211304 | 23 | 257 | 9.7 | 20.9 | 0.00 | 0.00 | 0.00 | 80 | 1018.7 |
| 20260505210804 | 23 | 258 | 8.0 | 20.9 | 0.00 | 0.00 | 0.00 | 80 | 1018.8 |
| 20260505210305 | 23 | 257 | 11.3 | 20.9 | 0.00 | 0.00 | 0.00 | 79 | 1018.8 |
| 20260505204803 | 23 | 256 | 8.0 | 20.9 | 0.00 | 0.00 | 0.00 | 78 | 1018.8 |
| 20260505204304 | 23 | 265 | 8.0 | 19.3 | 0.00 | 0.00 | 0.00 | 77 | 1018.8 |
| 20260505203803 | 23 | 249 | 9.7 | 19.3 | 0.00 | 0.00 | 0.00 | 77 | 1018.7 |
| 20260505203304 | 23 | 228 | 6.4 | 19.3 | 0.00 | 0.00 | 0.00 | 76 | 1018.5 |
| 20260505201804 | 23 | 263 | 8.0 | 25.7 | 0.00 | 0.00 | 0.00 | 76 | 1018.7 |
| 20260505201304 | 23 | 255 | 9.7 | 25.7 | 0.00 | 0.00 | 0.00 | 77 | 1018.7 |
| 20260505194804 | 23 | 257 | 9.7 | 16.1 | 0.00 | 0.00 | 0.00 | 76 | 1019.0 |
| 20260505194304 | 23 | 272 | 4.8 | 12.9 | 0.00 | 0.00 | 0.00 | 77 | 1019.0 |
| 20260505193804 | 24 | 270 | 8.0 | 24.1 | 0.00 | 0.00 | 0.00 | 76 | 1019.2 |
| 20260505193304 | 23 | 234 | 9.7 | 24.1 | 0.00 | 0.00 | 0.00 | 76 | 1019.3 |
| 20260505191803 | 24 | 249 | 11.3 | 19.3 | 0.00 | 0.00 | 0.00 | 76 | 1019.6 |
| 20260505191303 | 24 | 253 | 9.7 | 19.3 | 0.00 | 0.00 | 0.00 | 76 | 1019.6 |
| 20260505190803 | 24 | 244 | 9.7 | 20.9 | 0.00 | 0.00 | 0.00 | 76 | 1019.7 |
| 20260505190303 | 24 | 260 | 9.7 | 20.9 | 0.00 | 0.00 | 0.00 | 76 | 1019.6 |
| 20260505184303 | 24 | 261 | 8.0 | 19.3 | 0.00 | 0.00 | 0.00 | 76 | 1019.4 |
| 20260505183804 | 25 | 283 | 4.8 | 14.5 | 0.00 | 0.00 | 0.00 | 76 | 1019.4 |
| 20260505183304 | 25 | 280 | 8.0 | 14.5 | 0.00 | 0.00 | 0.00 | 76 | 1019.3 |
| 20260505181803 | 24 | 254 | 9.7 | 20.9 | 0.00 | 0.00 | 0.00 | 76 | 1019.6 |
| 20260505181304 | 24 | 271 | 6.4 | 20.9 | 0.00 | 0.00 | 0.00 | 76 | 1019.6 |
| 20260505180803 | 25 | 264 | 9.7 | 20.9 | 0.00 | 0.00 | 0.00 | 76 | 1019.7 |
| 20260505180303 | 25 | 238 | 9.7 | 24.1 | 0.00 | 0.00 | 0.00 | 75 | 1019.8 |
| 20260505174804 | 25 | 283 | 11.3 | 20.9 | 0.00 | 0.00 | 0.00 | 74 | 1019.9 |
| 20260505174304 | 25 | 226 | 4.8 | 16.1 | 0.00 | 0.00 | 0.00 | 75 | 1019.7 |
| 20260505173805 | 25 | 260 | 9.7 | 16.1 | 0.00 | 0.00 | 0.00 | 74 | 1019.7 |
| 20260505173304 | 25 | 258 | 8.0 | 16.1 | 0.00 | 0.00 | 0.00 | 73 | 1019.9 |
| 20260505171805 | 25 | 244 | 8.0 | 25.7 | 0.00 | 0.00 | 0.00 | 74 | 1019.9 |
| 20260505171305 | 25 | 227 | 8.0 | 20.9 | 0.00 | 0.00 | 0.00 | 74 | 1020.0 |
| 20260505170306 | 24 | 228 | 9.7 | 20.9 | 0.00 | 0.00 | 0.00 | 76 | 1020.1 |
| 20260505164805 | 25 | 234 | 8.0 | 19.3 | 0.00 | 0.00 | 0.00 | 76 | 1020.2 |
| 20260505164306 | 25 | 232 | 11.3 | 19.3 | 0.00 | 0.00 | 0.00 | 74 | 1020.2 |
| 20260505163305 | 25 | 241 | 11.3 | 24.1 | 0.00 | 0.00 | 0.00 | 73 | 1020.3 |
| 20260505161805 | 25 | 252 | 9.7 | 19.3 | 0.00 | 0.00 | 0.00 | 73 | 1020.3 |
| 20260505161305 | 25 | 222 | 6.4 | 14.5 | 0.00 | 0.00 | 0.00 | 75 | 1020.3 |
| 20260505160805 | 24 | 251 | 3.2 | 9.7 | 0.00 | 0.00 | 0.00 | 77 | 1020.4 |
| 20260505160306 | 23 | 200 | 4.8 | 11.3 | 0.00 | 0.00 | 0.00 | 77 | 1020.4 |
| 20260505153308 | 24 | 254 | 3.2 | 14.5 | 0.00 | 0.00 | 0.00 | 78 | 1020.4 |
| 20260505151805 | 24 | 256 | 4.8 | 12.9 | 0.00 | 0.00 | 0.00 | 76 | 1020.4 |
| 20260505151305 | 24 | 268 | 3.2 | 16.1 | 0.00 | 0.00 | 0.00 | 76 | 1020.3 |
| 20260505150806 | 24 | 262 | 4.8 | 16.1 | 0.00 | 0.00 | 0.00 | 76 | 1020.3 |
| 20260505150305 | 24 | 272 | 8.0 | 16.1 | 0.00 | 0.00 | 0.00 | 75 | 1020.4 |
| 20260505140305 | 23 | 255 | 3.2 | 8.0 | 0.00 | 0.00 | 0.00 | 82 | 1020.1 |
| 20260505124805 | 17 | 23 | 0.0 | 0.0 | 0.00 | 0.00 | 0.00 | 98 | 1019.7 |
| 20260505124305 | 17 | 22 | 0.0 | 0.0 | 0.00 | 0.00 | 0.00 | 98 | 1019.9 |
| 20260505123805 | 16 | 23 | 0.0 | 0.0 | 0.00 | 0.00 | 0.00 | 98 | 1019.9 |
| 20260505123305 | 16 | 23 | 0.0 | 0.0 | 0.00 | 0.00 | 0.00 | 98 | 1019.8 |
| 20260505121805 | 15 | 23 | 0.0 | 0.0 | 0.00 | 0.00 | 0.00 | 100 | 1019.7 |
| 20260505121305 | 15 | 23 | 0.0 | 0.0 | 0.00 | 0.00 | 0.00 | 100 | 1019.7 |
| 20260505120805 | 15 | 23 | 0.0 | 0.0 | 0.00 | 0.00 | 0.00 | 100 | 1019.6 |
| 20260505120305 | 14 | 23 | 0.0 | 0.0 | 0.00 | 0.00 | 0.00 | 100 | 1019.6 |
| 20260505114805 | 13 | 23 | 0.0 | 0.0 | 0.00 | 0.00 | 0.00 | 100 | 1019.7 |
| 20260505113805 | 13 | 23 | 0.0 | 0.0 | 0.00 | 0.00 | 0.00 | 100 | 1019.7 |
| 20260505113305 | 12 | 23 | 0.0 | 0.0 | 0.00 | 0.00 | 0.00 | 98 | 1019.5 |
| 20260505111805 | 12 | 260 | 0.0 | 0.0 | 0.00 | 0.00 | 0.00 | 98 | 1019.3 |
| 20260505111305 | 12 | 260 | 0.0 | 0.0 | 0.00 | 0.00 | 0.00 | 98 | 1019.2 |
| 20260505110805 | 12 | 260 | 0.0 | 0.0 | 0.00 | 0.00 | 0.00 | 98 | 1019.2 |
| 20260505110305 | 12 | 260 | 0.0 | 0.0 | 0.00 | 0.00 | 0.00 | 98 | 1019.1 |
| 20260505101804 | 11 | 260 | 0.0 | 0.0 | 0.00 | 0.00 | 0.00 | 98 | 1018.6 |
| 20260505101305 | 11 | 260 | 0.0 | 0.0 | 0.00 | 0.00 | 0.00 | 98 | 1018.6 |
| 20260505100805 | 11 | 260 | 0.0 | 0.0 | 0.00 | 0.00 | 0.00 | 98 | 1018.4 |
| 20260505100305 | 11 | 260 | 0.0 | 0.0 | 0.00 | 0.00 | 0.00 | 98 | 1018.3 |
| 20260505094805 | 12 | 260 | 0.0 | 0.0 | 0.00 | 0.00 | 0.00 | 98 | 1018.2 |
| 20260505094305 | 12 | 260 | 0.0 | 0.0 | 0.00 | 0.00 | 0.00 | 98 | 1018.3 |
| 20260505093804 | 12 | 260 | 0.0 | 0.0 | 0.00 | 0.00 | 0.00 | 98 | 1018.2 |
| 20260505093305 | 12 | 260 | 0.0 | 0.0 | 0.00 | 0.00 | 0.00 | 98 | 1018.2 |
| 20260505091305 | 12 | 260 | 0.0 | 0.0 | 0.00 | 0.00 | 0.00 | 98 | 1018.1 |
| 20260505090805 | 12 | 260 | 0.0 | 0.0 | 0.00 | 0.00 | 0.00 | 98 | 1018.0 |
| 20260505090305 | 12 | 260 | 0.0 | 0.0 | 0.00 | 0.00 | 0.00 | 98 | 1017.9 |
| 20260505084805 | 12 | 260 | 0.0 | 0.0 | 0.00 | 0.00 | 0.00 | 98 | 1017.8 |
| 20260505084304 | 12 | 260 | 0.0 | 0.0 | 0.00 | 0.00 | 0.00 | 98 | 1017.8 |
| 20260505083805 | 12 | 260 | 0.0 | 0.0 | 0.00 | 0.00 | 0.00 | 98 | 1017.8 |
| 20260505083306 | 12 | 260 | 0.0 | 0.0 | 0.00 | 0.00 | 0.00 | 97 | 1017.8 |
| 20260505081805 | 12 | 260 | 0.0 | 0.0 | 0.00 | 0.00 | 0.00 | 97 | 1017.8 |
| 20260505081305 | 12 | 260 | 0.0 | 0.0 | 0.00 | 0.00 | 0.00 | 97 | 1017.8 |
| 20260505080805 | 12 | 260 | 0.0 | 0.0 | 0.00 | 0.00 | 0.00 | 97 | 1017.9 |
| 20260505080305 | 12 | 260 | 0.0 | 0.0 | 0.00 | 0.00 | 0.00 | 97 | 1017.8 |
| 20260505074805 | 12 | 260 | 0.0 | 0.0 | 0.00 | 0.00 | 0.00 | 97 | 1017.9 |
| 20260505074305 | 13 | 260 | 0.0 | 0.0 | 0.00 | 0.00 | 0.00 | 97 | 1017.8 |
| 20260505073805 | 13 | 260 | 0.0 | 0.0 | 0.00 | 0.00 | 0.00 | 97 | 1017.8 |
| 20260505073305 | 13 | 260 | 0.0 | 0.0 | 0.00 | 0.00 | 0.00 | 97 | 1017.8 |
| 20260505071805 | 13 | 260 | 0.0 | 0.0 | 0.00 | 0.00 | 0.00 | 97 | 1017.8 |
| 20260505071305 | 13 | 260 | 0.0 | 0.0 | 0.00 | 0.00 | 0.00 | 97 | 1017.9 |
| 20260505070806 | 13 | 260 | 0.0 | 0.0 | 0.00 | 0.00 | 0.00 | 97 | 1017.8 |
| 20260505070305 | 13 | 260 | 0.0 | 0.0 | 0.00 | 0.00 | 0.00 | 97 | 1017.9 |
| 20260505064805 | 13 | 260 | 0.0 | 0.0 | 0.00 | 0.00 | 0.00 | 97 | 1018.0 |
| 20260505064305 | 13 | 260 | 0.0 | 0.0 | 0.00 | 0.00 | 0.00 | 96 | 1018.0 |
| 20260505063804 | 13 | 260 | 0.0 | 0.0 | 0.00 | 0.00 | 0.00 | 96 | 1018.0 |
| 20260505063306 | 13 | 260 | 0.0 | 0.0 | 0.00 | 0.00 | 0.00 | 96 | 1018.0 |
| 20260505061805 | 13 | 260 | 0.0 | 0.0 | 0.00 | 0.00 | 0.00 | 96 | 1018.2 |
| 20260505060805 | 14 | 260 | 0.0 | 0.0 | 0.00 | 0.00 | 0.00 | 96 | 1018.2 |
| 20260505060305 | 14 | 260 | 0.0 | 0.0 | 0.00 | 0.00 | 0.00 | 96 | 1018.3 |
| 20260505054305 | 15 | 260 | 0.0 | 0.0 | 0.00 | 0.00 | 0.00 | 96 | 1018.5 |
| 20260505053804 | 15 | 260 | 0.0 | 0.0 | 0.00 | 0.00 | 0.00 | 96 | 1018.7 |
| 20260505053305 | 15 | 260 | 0.0 | 0.0 | 0.00 | 0.00 | 0.00 | 96 | 1018.8 |
| 20260505051805 | 15 | 260 | 0.0 | 0.0 | 0.00 | 0.00 | 0.00 | 95 | 1018.8 |
| 20260505051305 | 15 | 260 | 0.0 | 0.0 | 0.00 | 0.00 | 0.00 | 95 | 1018.8 |
| 20260505050805 | 15 | 260 | 0.0 | 0.0 | 0.00 | 0.00 | 0.00 | 95 | 1018.9 |
| 20260505041305 | 15 | 260 | 0.0 | 0.0 | 0.00 | 0.00 | 0.00 | 93 | 1018.8 |
| 20260505040822 | 15 | 260 | 0.0 | 0.0 | 0.00 | 0.00 | 0.00 | 93 | 1018.8 |
| 20260505034804 | 16 | 260 | 0.0 | 0.0 | 0.00 | 0.00 | 0.00 | 92 | 1018.8 |
| 20260505034305 | 16 | 260 | 0.0 | 0.0 | 0.00 | 0.00 | 0.00 | 92 | 1018.8 |
| 20260505033305 | 16 | 260 | 0.0 | 0.0 | 0.00 | 0.00 | 0.00 | 91 | 1018.8 |
| 20260505031805 | 16 | 260 | 0.0 | 0.0 | 0.00 | 0.00 | 0.00 | 91 | 1018.9 |
| 20260505031305 | 16 | 260 | 0.0 | 0.0 | 0.00 | 0.00 | 0.00 | 90 | 1018.9 |
| 20260505030805 | 16 | 260 | 0.0 | 0.0 | 0.00 | 0.00 | 0.00 | 90 | 1019.0 |
| 20260505030305 | 16 | 260 | 0.0 | 0.0 | 0.00 | 0.00 | 0.00 | 90 | 1019.0 |
| 20260505024805 | 17 | 260 | 0.0 | 3.2 | 0.00 | 0.00 | 0.00 | 89 | 1018.9 |
| 20260505024305 | 17 | 260 | 0.0 | 3.2 | 0.00 | 0.00 | 0.00 | 89 | 1018.9 |
| 20260505023804 | 17 | 260 | 1.6 | 3.2 | 0.00 | 0.00 | 0.00 | 89 | 1019.0 |
| 20260505023304 | 17 | 260 | 0.0 | 4.8 | 0.00 | 0.00 | 0.00 | 89 | 1019.0 |
| 20260505021305 | 17 | 260 | 0.0 | 8.0 | 0.00 | 0.00 | 0.00 | 88 | 1019.1 |
| 20260505020805 | 17 | 260 | 0.0 | 8.0 | 0.00 | 0.00 | 0.00 | 88 | 1019.0 |
| 20260505020304 | 17 | 262 | 0.0 | 3.2 | 0.00 | 0.00 | 0.00 | 88 | 1018.9 |
| 20260505014804 | 17 | 262 | 1.6 | 4.8 | 0.00 | 0.00 | 0.00 | 87 | 1018.8 |
| 20260505014305 | 17 | 260 | 1.6 | 8.0 | 0.00 | 0.00 | 0.00 | 87 | 1018.8 |
| 20260505013804 | 18 | 249 | 0.0 | 8.0 | 0.00 | 0.00 | 0.00 | 87 | 1018.8 |
| 20260505013304 | 18 | 247 | 1.6 | 4.8 | 0.00 | 0.00 | 0.00 | 87 | 1018.6 |
| 20260505011804 | 18 | 261 | 3.2 | 8.0 | 0.00 | 0.00 | 0.00 | 87 | 1018.5 |
| 20260505011304 | 18 | 261 | 0.0 | 4.8 | 0.00 | 0.00 | 0.00 | 87 | 1018.3 |
| 20260505010305 | 18 | 261 | 0.0 | 8.0 | 0.00 | 0.00 | 0.00 | 86 | 1018.3 |
| 20260505003805 | 18 | 257 | 1.6 | 8.0 | 0.00 | 0.00 | 0.00 | 84 | 1018.1 |
| 20260505001804 | 18 | 257 | 1.6 | 8.0 | 0.00 | 0.00 | 0.00 | 84 | 1018.1 |
| 20260505001305 | 19 | 258 | 1.6 | 12.9 | 0.00 | 0.00 | 0.00 | 83 | 1018.1 |
| 20260505000806 | 19 | 12 | 1.6 | 12.9 | 0.00 | 0.00 | 0.00 | 82 | 1018.1 |
| 20260505000305 | 19 | 263 | 3.2 | 8.0 | 0.00 | 0.00 | 0.00 | 81 | 1017.9 |
| 20260504234805 | 19 | 267 | 3.2 | 11.3 | 0.00 | 0.00 | 0.00 | 80 | 1017.9 |
| 20260504234305 | 20 | 292 | 3.2 | 9.7 | 0.00 | 0.00 | 0.00 | 80 | 1017.9 |
| 20260504233805 | 20 | 271 | 3.2 | 9.7 | 0.00 | 0.00 | 0.00 | 80 | 1018.0 |
| 20260504231804 | 20 | 247 | 4.8 | 20.9 | 0.00 | 0.00 | 0.00 | 77 | 1017.9 |
| 20260504231304 | 20 | 280 | 6.4 | 14.5 | 0.00 | 0.00 | 0.00 | 77 | 1017.9 |
| 20260504230804 | 20 | 252 | 3.2 | 16.1 | 0.00 | 0.00 | 0.00 | 77 | 1017.9 |
| 20260504230305 | 20 | 240 | 3.2 | 16.1 | 0.00 | 0.00 | 0.00 | 78 | 1017.9 |
| 20260504223805 | 21 | 257 | 6.4 | 25.7 | 0.00 | 0.00 | 0.00 | 76 | 1018.0 |
| 20260504223305 | 21 | 267 | 8.0 | 25.7 | 0.00 | 0.00 | 0.00 | 75 | 1017.9 |
| 20260504221805 | 21 | 245 | 8.0 | 20.9 | 0.00 | 0.00 | 0.00 | 76 | 1017.8 |
| 20260504221304 | 21 | 247 | 8.0 | 20.9 | 0.00 | 0.00 | 0.00 | 76 | 1017.8 |
| 20260504220804 | 21 | 253 | 11.3 | 19.3 | 0.00 | 0.00 | 0.00 | 76 | 1017.8 |
| 20260504220305 | 21 | 249 | 9.7 | 19.3 | 0.00 | 0.00 | 0.00 | 76 | 1017.8 |
| 20260504214804 | 21 | 276 | 8.0 | 24.1 | 0.00 | 0.00 | 0.00 | 77 | 1017.9 |
| 20260504214305 | 21 | 247 | 9.7 | 24.1 | 0.00 | 0.00 | 0.00 | 78 | 1017.7 |